Survey, Nebraska
Current Conditions -  °F | °C
As of 8:53 PM on Friday 24 Oct 2014 (Local Time) from KAIA Reporting Station
Clear Clear  
Wind Chill: 43°   Ceiling: Unl
Heat Index: 45°   Visibility: 10mi
Dew Point: 35°   Wind: 5mph
Humidity: 68%   Direction: 360°N
Pressure: 30.08"   Gusts: NA
Location:  41.9086°N, 101.954°W
Report Text: KAIA 250253Z AUTO 36004KT 10SM CLR 07/02 A3008 RMK AO2 SLP179 T00720017 53015 $
Loading
Personal Weather Stations






























Interactive Weather Map
Tropical Storm Tracking
New forecast layout! Learn more

10-Day Weather Forecast

Advertisements
Track Severe Weather on mobile